sensor_id;sensor_type;location;lat;lon;timestamp;temperature;humidity
8095;DHT22;4090;49.270;8.696;2024-03-08T00:01:45;7.40;99.90
8095;DHT22;4090;49.270;8.696;2024-03-08T00:04:27;7.40;99.90
8095;DHT22;4090;49.270;8.696;2024-03-08T00:07:09;7.40;99.90
8095;DHT22;4090;49.270;8.696;2024-03-08T00:09:52;7.30;99.90
8095;DHT22;4090;49.270;8.696;2024-03-08T00:12:34;7.30;99.90
8095;DHT22;4090;49.270;8.696;2024-03-08T00:15:17;7.30;99.90
8095;DHT22;4090;49.270;8.696;2024-03-08T00:17:58;7.30;99.90
8095;DHT22;4090;49.270;8.696;2024-03-08T00:20:40;7.20;99.90
8095;DHT22;4090;49.270;8.696;2024-03-08T00:23:22;7.30;99.90
8095;DHT22;4090;49.270;8.696;2024-03-08T00:26:06;7.20;99.90
8095;DHT22;4090;49.270;8.696;2024-03-08T00:28:48;7.20;99.90
8095;DHT22;4090;49.270;8.696;2024-03-08T00:31:30;7.20;99.90
8095;DHT22;4090;49.270;8.696;2024-03-08T00:34:12;7.20;99.90
8095;DHT22;4090;49.270;8.696;2024-03-08T00:36:54;7.10;99.90
8095;DHT22;4090;49.270;8.696;2024-03-08T00:39:36;7.20;99.90
8095;DHT22;4090;49.270;8.696;2024-03-08T00:42:19;7.10;99.90
8095;DHT22;4090;49.270;8.696;2024-03-08T00:45:01;7.10;99.90
8095;DHT22;4090;49.270;8.696;2024-03-08T00:47:43;7.10;99.90
8095;DHT22;4090;49.270;8.696;2024-03-08T00:50:26;7.10;99.90
8095;DHT22;4090;49.270;8.696;2024-03-08T00:53:07;7.10;99.90
8095;DHT22;4090;49.270;8.696;2024-03-08T00:55:51;7.00;99.90
8095;DHT22;4090;49.270;8.696;2024-03-08T00:58:34;7.00;99.90
8095;DHT22;4090;49.270;8.696;2024-03-08T01:01:18;7.00;99.90
8095;DHT22;4090;49.270;8.696;2024-03-08T01:04:00;7.00;99.90
8095;DHT22;4090;49.270;8.696;2024-03-08T01:06:42;7.00;99.90
8095;DHT22;4090;49.270;8.696;2024-03-08T01:09:26;6.90;99.90
8095;DHT22;4090;49.270;8.696;2024-03-08T01:12:08;6.90;99.90
8095;DHT22;4090;49.270;8.696;2024-03-08T01:14:52;6.90;99.90
8095;DHT22;4090;49.270;8.696;2024-03-08T01:17:34;6.90;99.90
8095;DHT22;4090;49.270;8.696;2024-03-08T01:20:16;6.90;99.90
8095;DHT22;4090;49.270;8.696;2024-03-08T01:22:58;6.90;99.90
8095;DHT22;4090;49.270;8.696;2024-03-08T01:25:40;6.80;99.90
8095;DHT22;4090;49.270;8.696;2024-03-08T01:28:24;6.80;99.90
8095;DHT22;4090;49.270;8.696;2024-03-08T01:31:07;6.80;99.90
8095;DHT22;4090;49.270;8.696;2024-03-08T01:33:49;6.80;99.90
8095;DHT22;4090;49.270;8.696;2024-03-08T01:36:31;6.70;99.90
8095;DHT22;4090;49.270;8.696;2024-03-08T01:39:13;6.70;99.90
8095;DHT22;4090;49.270;8.696;2024-03-08T01:41:55;6.70;99.90
8095;DHT22;4090;49.270;8.696;2024-03-08T01:44:37;6.70;99.90
8095;DHT22;4090;49.270;8.696;2024-03-08T01:47:20;6.70;99.90
8095;DHT22;4090;49.270;8.696;2024-03-08T01:50:04;6.70;99.90
8095;DHT22;4090;49.270;8.696;2024-03-08T01:52:46;6.70;99.90
8095;DHT22;4090;49.270;8.696;2024-03-08T01:55:28;6.60;99.90
8095;DHT22;4090;49.270;8.696;2024-03-08T01:58:10;6.60;99.90
8095;DHT22;4090;49.270;8.696;2024-03-08T02:00:53;6.60;99.90
8095;DHT22;4090;49.270;8.696;2024-03-08T02:03:36;6.60;99.90
8095;DHT22;4090;49.270;8.696;2024-03-08T02:06:18;6.60;99.90
8095;DHT22;4090;49.270;8.696;2024-03-08T02:09:00;6.60;99.90
8095;DHT22;4090;49.270;8.696;2024-03-08T02:11:46;6.60;99.90
8095;DHT22;4090;49.270;8.696;2024-03-08T02:14:28;6.60;99.90
8095;DHT22;4090;49.270;8.696;2024-03-08T02:17:11;6.60;99.90
8095;DHT22;4090;49.270;8.696;2024-03-08T02:19:55;6.60;99.90
8095;DHT22;4090;49.270;8.696;2024-03-08T02:22:38;6.50;99.90
8095;DHT22;4090;49.270;8.696;2024-03-08T02:25:20;6.50;99.90
8095;DHT22;4090;49.270;8.696;2024-03-08T02:28:02;6.50;99.90
8095;DHT22;4090;49.270;8.696;2024-03-08T02:30:44;6.50;99.90
8095;DHT22;4090;49.270;8.696;2024-03-08T02:33:28;6.50;99.90
8095;DHT22;4090;49.270;8.696;2024-03-08T02:36:10;6.40;99.90
8095;DHT22;4090;49.270;8.696;2024-03-08T02:38:54;6.40;99.90
8095;DHT22;4090;49.270;8.696;2024-03-08T02:41:36;6.40;99.90
8095;DHT22;4090;49.270;8.696;2024-03-08T02:44:18;6.40;99.90
8095;DHT22;4090;49.270;8.696;2024-03-08T02:47:02;6.30;99.90
8095;DHT22;4090;49.270;8.696;2024-03-08T02:49:44;6.30;99.90
8095;DHT22;4090;49.270;8.696;2024-03-08T02:52:26;6.30;99.90
8095;DHT22;4090;49.270;8.696;2024-03-08T02:55:09;6.30;99.90
8095;DHT22;4090;49.270;8.696;2024-03-08T02:57:51;6.30;99.90
8095;DHT22;4090;49.270;8.696;2024-03-08T03:00:35;6.30;99.90
8095;DHT22;4090;49.270;8.696;2024-03-08T03:03:17;6.30;99.90
8095;DHT22;4090;49.270;8.696;2024-03-08T03:05:58;6.30;99.90
8095;DHT22;4090;49.270;8.696;2024-03-08T03:08:41;6.20;99.90
8095;DHT22;4090;49.270;8.696;2024-03-08T03:11:27;6.20;99.90
8095;DHT22;4090;49.270;8.696;2024-03-08T03:14:09;6.20;99.90
8095;DHT22;4090;49.270;8.696;2024-03-08T03:16:51;6.20;99.90
8095;DHT22;4090;49.270;8.696;2024-03-08T03:19:32;6.20;99.90
8095;DHT22;4090;49.270;8.696;2024-03-08T03:22:16;6.10;99.90
8095;DHT22;4090;49.270;8.696;2024-03-08T03:24:58;6.10;99.90
8095;DHT22;4090;49.270;8.696;2024-03-08T03:27:44;6.10;99.90
8095;DHT22;4090;49.270;8.696;2024-03-08T03:30:27;6.10;99.90
8095;DHT22;4090;49.270;8.696;2024-03-08T03:33:13;6.00;99.90
8095;DHT22;4090;49.270;8.696;2024-03-08T03:35:55;6.00;99.90
8095;DHT22;4090;49.270;8.696;2024-03-08T03:38:37;6.00;99.90
8095;DHT22;4090;49.270;8.696;2024-03-08T03:41:19;6.00;99.90
8095;DHT22;4090;49.270;8.696;2024-03-08T03:44:02;6.00;99.90
8095;DHT22;4090;49.270;8.696;2024-03-08T03:46:44;6.00;99.90
8095;DHT22;4090;49.270;8.696;2024-03-08T03:49:26;6.00;99.90
8095;DHT22;4090;49.270;8.696;2024-03-08T03:52:09;6.00;99.90
8095;DHT22;4090;49.270;8.696;2024-03-08T03:54:51;5.90;99.90
8095;DHT22;4090;49.270;8.696;2024-03-08T03:57:33;5.90;99.90
8095;DHT22;4090;49.270;8.696;2024-03-08T04:00:17;5.90;99.90
8095;DHT22;4090;49.270;8.696;2024-03-08T04:02:59;5.90;99.90
8095;DHT22;4090;49.270;8.696;2024-03-08T04:05:41;5.80;99.90
8095;DHT22;4090;49.270;8.696;2024-03-08T04:08:23;5.80;99.90
8095;DHT22;4090;49.270;8.696;2024-03-08T04:11:05;5.80;99.90
8095;DHT22;4090;49.270;8.696;2024-03-08T04:13:47;5.80;99.90
8095;DHT22;4090;49.270;8.696;2024-03-08T04:16:30;5.80;99.90
8095;DHT22;4090;49.270;8.696;2024-03-08T04:19:12;5.80;99.90
8095;DHT22;4090;49.270;8.696;2024-03-08T04:21:54;5.80;99.90
8095;DHT22;4090;49.270;8.696;2024-03-08T04:24:35;5.70;99.90
8095;DHT22;4090;49.270;8.696;2024-03-08T04:27:17;5.70;99.90
8095;DHT22;4090;49.270;8.696;2024-03-08T04:30:00;5.70;99.90
8095;DHT22;4090;49.270;8.696;2024-03-08T04:32:43;5.70;99.90
8095;DHT22;4090;49.270;8.696;2024-03-08T04:35:25;5.70;99.90
8095;DHT22;4090;49.270;8.696;2024-03-08T04:38:07;5.70;99.90
8095;DHT22;4090;49.270;8.696;2024-03-08T04:40:49;5.70;99.90
8095;DHT22;4090;49.270;8.696;2024-03-08T04:43:33;5.60;99.90
8095;DHT22;4090;49.270;8.696;2024-03-08T04:46:15;5.60;99.90
8095;DHT22;4090;49.270;8.696;2024-03-08T04:48:58;5.60;99.90
8095;DHT22;4090;49.270;8.696;2024-03-08T04:51:40;5.60;99.90
8095;DHT22;4090;49.270;8.696;2024-03-08T04:54:22;5.60;99.90
8095;DHT22;4090;49.270;8.696;2024-03-08T04:57:04;5.60;99.90
8095;DHT22;4090;49.270;8.696;2024-03-08T04:59:46;5.60;99.90
8095;DHT22;4090;49.270;8.696;2024-03-08T05:02:28;5.50;99.90
8095;DHT22;4090;49.270;8.696;2024-03-08T05:05:11;5.50;99.90
8095;DHT22;4090;49.270;8.696;2024-03-08T05:07:53;5.50;99.90
8095;DHT22;4090;49.270;8.696;2024-03-08T05:10:35;5.50;99.90
8095;DHT22;4090;49.270;8.696;2024-03-08T05:13:17;5.40;99.90
8095;DHT22;4090;49.270;8.696;2024-03-08T05:15:59;5.40;99.90
8095;DHT22;4090;49.270;8.696;2024-03-08T05:18:41;5.40;99.90
8095;DHT22;4090;49.270;8.696;2024-03-08T05:21:25;5.40;99.90
8095;DHT22;4090;49.270;8.696;2024-03-08T05:24:06;5.40;99.90
8095;DHT22;4090;49.270;8.696;2024-03-08T05:26:50;5.40;99.90
8095;DHT22;4090;49.270;8.696;2024-03-08T05:29:32;5.40;99.90
8095;DHT22;4090;49.270;8.696;2024-03-08T05:32:14;5.30;99.90
8095;DHT22;4090;49.270;8.696;2024-03-08T05:34:56;5.30;99.90
8095;DHT22;4090;49.270;8.696;2024-03-08T05:37:39;5.30;99.90
8095;DHT22;4090;49.270;8.696;2024-03-08T05:40:21;5.30;99.90
8095;DHT22;4090;49.270;8.696;2024-03-08T05:43:03;5.20;99.90
8095;DHT22;4090;49.270;8.696;2024-03-08T05:45:46;5.20;99.90
8095;DHT22;4090;49.270;8.696;2024-03-08T05:48:27;5.10;99.90
8095;DHT22;4090;49.270;8.696;2024-03-08T05:51:09;5.10;99.90
8095;DHT22;4090;49.270;8.696;2024-03-08T05:53:54;5.10;99.90
8095;DHT22;4090;49.270;8.696;2024-03-08T05:56:38;5.10;99.90
8095;DHT22;4090;49.270;8.696;2024-03-08T05:59:21;5.10;99.90
8095;DHT22;4090;49.270;8.696;2024-03-08T06:02:04;5.10;99.90
8095;DHT22;4090;49.270;8.696;2024-03-08T06:04:46;5.10;99.90
8095;DHT22;4090;49.270;8.696;2024-03-08T06:07:28;5.00;99.90
8095;DHT22;4090;49.270;8.696;2024-03-08T06:10:12;5.10;99.90
8095;DHT22;4090;49.270;8.696;2024-03-08T06:12:53;5.00;99.90
8095;DHT22;4090;49.270;8.696;2024-03-08T06:15:35;5.00;99.90
8095;DHT22;4090;49.270;8.696;2024-03-08T06:18:17;5.00;99.90
8095;DHT22;4090;49.270;8.696;2024-03-08T06:20:59;5.00;99.90
8095;DHT22;4090;49.270;8.696;2024-03-08T06:23:41;5.00;99.90
8095;DHT22;4090;49.270;8.696;2024-03-08T06:26:24;5.00;99.90
8095;DHT22;4090;49.270;8.696;2024-03-08T06:29:09;5.00;99.90
8095;DHT22;4090;49.270;8.696;2024-03-08T06:31:51;5.00;99.90
8095;DHT22;4090;49.270;8.696;2024-03-08T06:34:34;5.00;99.90
8095;DHT22;4090;49.270;8.696;2024-03-08T06:37:16;5.10;99.90
8095;DHT22;4090;49.270;8.696;2024-03-08T06:40:02;5.00;99.90
8095;DHT22;4090;49.270;8.696;2024-03-08T06:42:46;5.10;99.90
8095;DHT22;4090;49.270;8.696;2024-03-08T06:45:27;5.10;99.90
8095;DHT22;4090;49.270;8.696;2024-03-08T06:48:10;5.10;99.90
8095;DHT22;4090;49.270;8.696;2024-03-08T06:50:53;5.10;99.90
8095;DHT22;4090;49.270;8.696;2024-03-08T06:53:36;5.10;99.90
8095;DHT22;4090;49.270;8.696;2024-03-08T06:56:18;5.10;99.90
8095;DHT22;4090;49.270;8.696;2024-03-08T06:59:02;5.10;99.90
8095;DHT22;4090;49.270;8.696;2024-03-08T07:01:44;5.10;99.90
8095;DHT22;4090;49.270;8.696;2024-03-08T07:04:27;5.10;99.90
8095;DHT22;4090;49.270;8.696;2024-03-08T07:07:10;5.10;99.90
8095;DHT22;4090;49.270;8.696;2024-03-08T07:09:52;5.10;99.90
8095;DHT22;4090;49.270;8.696;2024-03-08T07:12:35;5.10;99.90
8095;DHT22;4090;49.270;8.696;2024-03-08T07:15:18;5.10;99.90
8095;DHT22;4090;49.270;8.696;2024-03-08T07:18:01;5.10;99.90
8095;DHT22;4090;49.270;8.696;2024-03-08T07:20:43;5.10;99.90
8095;DHT22;4090;49.270;8.696;2024-03-08T07:23:25;5.10;99.90
8095;DHT22;4090;49.270;8.696;2024-03-08T07:26:23;5.10;99.90
8095;DHT22;4090;49.270;8.696;2024-03-08T07:29:05;5.10;99.90
8095;DHT22;4090;49.270;8.696;2024-03-08T07:31:49;5.10;99.90
8095;DHT22;4090;49.270;8.696;2024-03-08T07:34:43;5.10;99.90
8095;DHT22;4090;49.270;8.696;2024-03-08T07:37:24;5.10;99.90
8095;DHT22;4090;49.270;8.696;2024-03-08T07:40:07;5.10;99.90
8095;DHT22;4090;49.270;8.696;2024-03-08T07:42:50;5.20;99.90
8095;DHT22;4090;49.270;8.696;2024-03-08T07:45:33;5.20;99.90
8095;DHT22;4090;49.270;8.696;2024-03-08T07:48:17;5.20;99.90
8095;DHT22;4090;49.270;8.696;2024-03-08T07:50:59;5.20;99.90
8095;DHT22;4090;49.270;8.696;2024-03-08T07:53:41;5.20;99.90
8095;DHT22;4090;49.270;8.696;2024-03-08T07:56:24;5.20;99.90
8095;DHT22;4090;49.270;8.696;2024-03-08T07:59:06;5.20;99.90
8095;DHT22;4090;49.270;8.696;2024-03-08T08:01:48;5.20;99.90
8095;DHT22;4090;49.270;8.696;2024-03-08T08:04:31;5.20;99.90
8095;DHT22;4090;49.270;8.696;2024-03-08T08:07:13;5.20;99.90
8095;DHT22;4090;49.270;8.696;2024-03-08T08:09:55;5.30;99.90
8095;DHT22;4090;49.270;8.696;2024-03-08T08:12:37;5.30;99.90
8095;DHT22;4090;49.270;8.696;2024-03-08T08:15:19;5.30;99.90
8095;DHT22;4090;49.270;8.696;2024-03-08T08:18:01;5.30;99.90
8095;DHT22;4090;49.270;8.696;2024-03-08T08:20:47;5.30;99.90
8095;DHT22;4090;49.270;8.696;2024-03-08T08:23:29;5.40;99.90
8095;DHT22;4090;49.270;8.696;2024-03-08T08:26:11;5.40;99.90
8095;DHT22;4090;49.270;8.696;2024-03-08T08:28:53;5.40;99.90
8095;DHT22;4090;49.270;8.696;2024-03-08T08:31:35;5.40;99.90
8095;DHT22;4090;49.270;8.696;2024-03-08T08:34:17;5.50;99.90
8095;DHT22;4090;49.270;8.696;2024-03-08T08:37:01;5.50;99.90
8095;DHT22;4090;49.270;8.696;2024-03-08T08:39:43;5.50;99.90
8095;DHT22;4090;49.270;8.696;2024-03-08T08:42:24;5.50;99.90
8095;DHT22;4090;49.270;8.696;2024-03-08T08:45:07;5.50;99.90
8095;DHT22;4090;49.270;8.696;2024-03-08T08:47:49;5.60;99.90
8095;DHT22;4090;49.270;8.696;2024-03-08T08:50:31;5.60;99.90
8095;DHT22;4090;49.270;8.696;2024-03-08T08:53:15;5.60;99.90
8095;DHT22;4090;49.270;8.696;2024-03-08T08:55:57;5.60;99.90
8095;DHT22;4090;49.270;8.696;2024-03-08T08:58:40;5.70;99.90
8095;DHT22;4090;49.270;8.696;2024-03-08T09:01:23;5.70;99.90
8095;DHT22;4090;49.270;8.696;2024-03-08T09:04:04;5.70;99.90
8095;DHT22;4090;49.270;8.696;2024-03-08T09:06:48;5.80;99.90
8095;DHT22;4090;49.270;8.696;2024-03-08T09:09:31;5.80;99.90
8095;DHT22;4090;49.270;8.696;2024-03-08T09:12:13;5.80;99.90
8095;DHT22;4090;49.270;8.696;2024-03-08T09:14:55;5.80;99.90
8095;DHT22;4090;49.270;8.696;2024-03-08T09:17:37;5.90;99.90
8095;DHT22;4090;49.270;8.696;2024-03-08T09:20:20;5.90;99.90
8095;DHT22;4090;49.270;8.696;2024-03-08T09:23:02;5.90;99.90
8095;DHT22;4090;49.270;8.696;2024-03-08T09:25:46;5.90;99.90
8095;DHT22;4090;49.270;8.696;2024-03-08T09:28:28;5.90;99.90
8095;DHT22;4090;49.270;8.696;2024-03-08T09:31:10;6.00;99.90
8095;DHT22;4090;49.270;8.696;2024-03-08T09:33:52;6.00;99.90
8095;DHT22;4090;49.270;8.696;2024-03-08T09:36:34;6.00;99.90
8095;DHT22;4090;49.270;8.696;2024-03-08T09:39:15;6.00;99.90
8095;DHT22;4090;49.270;8.696;2024-03-08T09:42:01;6.00;99.90
8095;DHT22;4090;49.270;8.696;2024-03-08T09:44:46;6.00;99.90
8095;DHT22;4090;49.270;8.696;2024-03-08T09:47:28;6.10;99.90
8095;DHT22;4090;49.270;8.696;2024-03-08T09:50:14;6.10;99.90
8095;DHT22;4090;49.270;8.696;2024-03-08T09:52:58;6.20;99.90
8095;DHT22;4090;49.270;8.696;2024-03-08T09:55:41;6.20;99.90
8095;DHT22;4090;49.270;8.696;2024-03-08T09:58:26;6.20;99.90
8095;DHT22;4090;49.270;8.696;2024-03-08T10:01:34;6.20;99.90
8095;DHT22;4090;49.270;8.696;2024-03-08T10:04:16;6.20;99.90
8095;DHT22;4090;49.270;8.696;2024-03-08T10:07:00;6.30;99.90
8095;DHT22;4090;49.270;8.696;2024-03-08T10:09:42;6.30;99.90
8095;DHT22;4090;49.270;8.696;2024-03-08T10:12:30;6.30;99.90
8095;DHT22;4090;49.270;8.696;2024-03-08T10:15:13;6.30;99.90
8095;DHT22;4090;49.270;8.696;2024-03-08T10:17:57;6.40;99.90
8095;DHT22;4090;49.270;8.696;2024-03-08T10:20:39;6.40;99.90
8095;DHT22;4090;49.270;8.696;2024-03-08T10:23:22;6.40;99.90
8095;DHT22;4090;49.270;8.696;2024-03-08T10:26:11;6.40;99.90
8095;DHT22;4090;49.270;8.696;2024-03-08T10:28:55;6.40;99.90
8095;DHT22;4090;49.270;8.696;2024-03-08T10:31:39;6.40;99.90
8095;DHT22;4090;49.270;8.696;2024-03-08T10:34:21;6.50;99.90
8095;DHT22;4090;49.270;8.696;2024-03-08T10:37:05;6.50;99.90
8095;DHT22;4090;49.270;8.696;2024-03-08T10:39:57;6.50;99.90
8095;DHT22;4090;49.270;8.696;2024-03-08T10:42:45;6.50;99.90
8095;DHT22;4090;49.270;8.696;2024-03-08T10:45:35;6.60;99.90
8095;DHT22;4090;49.270;8.696;2024-03-08T10:48:28;6.60;99.90
8095;DHT22;4090;49.270;8.696;2024-03-08T10:51:12;6.60;99.90
8095;DHT22;4090;49.270;8.696;2024-03-08T10:53:55;6.70;99.90
8095;DHT22;4090;49.270;8.696;2024-03-08T10:56:38;6.60;99.90
8095;DHT22;4090;49.270;8.696;2024-03-08T10:59:21;6.70;99.90
8095;DHT22;4090;49.270;8.696;2024-03-08T11:02:04;6.70;99.90
8095;DHT22;4090;49.270;8.696;2024-03-08T11:04:49;6.70;99.90
8095;DHT22;4090;49.270;8.696;2024-03-08T11:07:33;6.80;99.90
8095;DHT22;4090;49.270;8.696;2024-03-08T11:10:19;6.80;99.90
8095;DHT22;4090;49.270;8.696;2024-03-08T11:13:01;6.80;99.90
8095;DHT22;4090;49.270;8.696;2024-03-08T11:15:44;6.80;99.90
8095;DHT22;4090;49.270;8.696;2024-03-08T11:18:26;6.90;99.90
8095;DHT22;4090;49.270;8.696;2024-03-08T11:21:09;6.90;99.90
8095;DHT22;4090;49.270;8.696;2024-03-08T11:23:59;6.90;99.90
8095;DHT22;4090;49.270;8.696;2024-03-08T11:26:41;7.00;99.90
8095;DHT22;4090;49.270;8.696;2024-03-08T11:29:33;7.00;99.90
8095;DHT22;4090;49.270;8.696;2024-03-08T11:32:17;7.10;99.90
8095;DHT22;4090;49.270;8.696;2024-03-08T11:34:59;7.10;99.90
8095;DHT22;4090;49.270;8.696;2024-03-08T11:37:47;7.10;99.90
8095;DHT22;4090;49.270;8.696;2024-03-08T11:40:29;7.20;99.90
8095;DHT22;4090;49.270;8.696;2024-03-08T11:43:13;7.30;99.90
8095;DHT22;4090;49.270;8.696;2024-03-08T11:46:07;7.40;99.90
8095;DHT22;4090;49.270;8.696;2024-03-08T11:48:50;7.40;99.90
8095;DHT22;4090;49.270;8.696;2024-03-08T11:51:31;7.50;99.90
8095;DHT22;4090;49.270;8.696;2024-03-08T11:54:15;7.50;99.90
8095;DHT22;4090;49.270;8.696;2024-03-08T11:56:57;7.60;99.90
8095;DHT22;4090;49.270;8.696;2024-03-08T11:59:41;7.60;99.90
8095;DHT22;4090;49.270;8.696;2024-03-08T12:02:30;7.70;99.90
8095;DHT22;4090;49.270;8.696;2024-03-08T12:05:12;7.70;99.90
8095;DHT22;4090;49.270;8.696;2024-03-08T12:07:57;7.70;99.90
8095;DHT22;4090;49.270;8.696;2024-03-08T12:10:40;7.80;99.90
8095;DHT22;4090;49.270;8.696;2024-03-08T12:13:23;7.90;99.90
8095;DHT22;4090;49.270;8.696;2024-03-08T12:16:05;7.90;99.90
8095;DHT22;4090;49.270;8.696;2024-03-08T12:18:50;8.00;99.90
8095;DHT22;4090;49.270;8.696;2024-03-08T12:21:33;8.10;99.90
8095;DHT22;4090;49.270;8.696;2024-03-08T12:24:16;8.10;99.90
8095;DHT22;4090;49.270;8.696;2024-03-08T12:27:01;8.20;99.90
8095;DHT22;4090;49.270;8.696;2024-03-08T12:29:58;8.30;99.90
8095;DHT22;4090;49.270;8.696;2024-03-08T12:32:45;8.40;99.90
8095;DHT22;4090;49.270;8.696;2024-03-08T12:35:28;8.50;99.90
8095;DHT22;4090;49.270;8.696;2024-03-08T12:38:10;8.50;99.90
8095;DHT22;4090;49.270;8.696;2024-03-08T12:40:55;8.60;99.90
8095;DHT22;4090;49.270;8.696;2024-03-08T12:43:38;8.70;99.90
8095;DHT22;4090;49.270;8.696;2024-03-08T12:46:21;8.70;99.90
8095;DHT22;4090;49.270;8.696;2024-03-08T12:49:10;8.90;99.90
8095;DHT22;4090;49.270;8.696;2024-03-08T12:51:53;8.90;99.90
8095;DHT22;4090;49.270;8.696;2024-03-08T12:54:34;9.10;99.90
8095;DHT22;4090;49.270;8.696;2024-03-08T12:57:16;9.10;99.90
8095;DHT22;4090;49.270;8.696;2024-03-08T13:00:00;9.20;99.90
8095;DHT22;4090;49.270;8.696;2024-03-08T13:02:43;9.20;99.90
8095;DHT22;4090;49.270;8.696;2024-03-08T13:05:26;9.30;99.90
8095;DHT22;4090;49.270;8.696;2024-03-08T13:08:08;9.30;99.90
8095;DHT22;4090;49.270;8.696;2024-03-08T13:10:52;9.50;99.90
8095;DHT22;4090;49.270;8.696;2024-03-08T13:13:34;9.50;99.90
8095;DHT22;4090;49.270;8.696;2024-03-08T13:16:18;9.70;99.90
8095;DHT22;4090;49.270;8.696;2024-03-08T13:19:00;9.70;99.90
8095;DHT22;4090;49.270;8.696;2024-03-08T13:21:42;9.90;99.90
8095;DHT22;4090;49.270;8.696;2024-03-08T13:24:24;10.00;99.90
8095;DHT22;4090;49.270;8.696;2024-03-08T13:27:06;10.10;99.90
8095;DHT22;4090;49.270;8.696;2024-03-08T13:29:57;10.10;99.90
8095;DHT22;4090;49.270;8.696;2024-03-08T13:32:41;10.10;99.90
8095;DHT22;4090;49.270;8.696;2024-03-08T13:35:23;10.10;99.90
8095;DHT22;4090;49.270;8.696;2024-03-08T13:38:07;10.20;99.90
8095;DHT22;4090;49.270;8.696;2024-03-08T13:40:52;10.20;99.90
8095;DHT22;4090;49.270;8.696;2024-03-08T13:43:34;10.20;99.90
8095;DHT22;4090;49.270;8.696;2024-03-08T13:46:17;10.30;99.90
8095;DHT22;4090;49.270;8.696;2024-03-08T13:49:03;10.50;99.90
8095;DHT22;4090;49.270;8.696;2024-03-08T13:51:48;10.40;99.90
8095;DHT22;4090;49.270;8.696;2024-03-08T13:54:30;10.60;99.90
8095;DHT22;4090;49.270;8.696;2024-03-08T13:57:12;10.70;99.90
8095;DHT22;4090;49.270;8.696;2024-03-08T13:59:54;10.60;99.90
8095;DHT22;4090;49.270;8.696;2024-03-08T14:02:36;10.80;99.90
8095;DHT22;4090;49.270;8.696;2024-03-08T14:05:19;10.70;99.90
8095;DHT22;4090;49.270;8.696;2024-03-08T14:08:01;10.80;99.90
8095;DHT22;4090;49.270;8.696;2024-03-08T14:10:44;10.80;99.90
8095;DHT22;4090;49.270;8.696;2024-03-08T14:13:27;10.70;99.90
8095;DHT22;4090;49.270;8.696;2024-03-08T14:16:09;10.80;99.90
8095;DHT22;4090;49.270;8.696;2024-03-08T14:18:51;11.00;99.90
8095;DHT22;4090;49.270;8.696;2024-03-08T14:21:34;11.00;99.90
8095;DHT22;4090;49.270;8.696;2024-03-08T14:24:17;11.00;99.90
8095;DHT22;4090;49.270;8.696;2024-03-08T14:26:59;11.00;99.90
8095;DHT22;4090;49.270;8.696;2024-03-08T14:29:43;11.10;99.90
8095;DHT22;4090;49.270;8.696;2024-03-08T14:32:25;11.10;99.90
8095;DHT22;4090;49.270;8.696;2024-03-08T14:35:07;11.10;99.90
8095;DHT22;4090;49.270;8.696;2024-03-08T14:37:53;11.10;99.90
8095;DHT22;4090;49.270;8.696;2024-03-08T14:40:35;11.20;99.90
8095;DHT22;4090;49.270;8.696;2024-03-08T14:46:00;11.40;99.90
8095;DHT22;4090;49.270;8.696;2024-03-08T14:48:43;11.50;99.90
8095;DHT22;4090;49.270;8.696;2024-03-08T14:51:26;11.50;99.90
8095;DHT22;4090;49.270;8.696;2024-03-08T14:54:09;11.40;99.90
8095;DHT22;4090;49.270;8.696;2024-03-08T14:56:51;11.40;99.90
8095;DHT22;4090;49.270;8.696;2024-03-08T14:59:35;11.50;99.90
8095;DHT22;4090;49.270;8.696;2024-03-08T15:02:18;11.50;99.90
8095;DHT22;4090;49.270;8.696;2024-03-08T15:05:00;11.50;99.90
8095;DHT22;4090;49.270;8.696;2024-03-08T15:07:44;11.60;99.90
8095;DHT22;4090;49.270;8.696;2024-03-08T15:10:28;11.60;99.90
8095;DHT22;4090;49.270;8.696;2024-03-08T15:13:14;11.60;99.90
8095;DHT22;4090;49.270;8.696;2024-03-08T15:16:01;11.60;99.90
8095;DHT22;4090;49.270;8.696;2024-03-08T15:18:46;11.60;99.90
8095;DHT22;4090;49.270;8.696;2024-03-08T15:21:28;11.60;99.90
8095;DHT22;4090;49.270;8.696;2024-03-08T15:24:11;11.60;99.90
8095;DHT22;4090;49.270;8.696;2024-03-08T15:26:57;11.50;99.90
8095;DHT22;4090;49.270;8.696;2024-03-08T15:29:40;11.50;99.90
8095;DHT22;4090;49.270;8.696;2024-03-08T15:32:24;11.50;99.90
8095;DHT22;4090;49.270;8.696;2024-03-08T15:35:08;11.70;99.90
8095;DHT22;4090;49.270;8.696;2024-03-08T15:37:54;11.70;99.90
8095;DHT22;4090;49.270;8.696;2024-03-08T15:40:38;11.60;99.90
8095;DHT22;4090;49.270;8.696;2024-03-08T15:43:22;11.60;99.90
8095;DHT22;4090;49.270;8.696;2024-03-08T15:46:06;11.50;99.90
8095;DHT22;4090;49.270;8.696;2024-03-08T15:48:48;11.50;99.90
8095;DHT22;4090;49.270;8.696;2024-03-08T15:51:32;11.40;99.90
8095;DHT22;4090;49.270;8.696;2024-03-08T15:54:14;11.40;99.90
8095;DHT22;4090;49.270;8.696;2024-03-08T15:56:56;11.40;99.90
8095;DHT22;4090;49.270;8.696;2024-03-08T15:59:39;11.40;99.90
8095;DHT22;4090;49.270;8.696;2024-03-08T16:02:21;11.30;99.90
8095;DHT22;4090;49.270;8.696;2024-03-08T16:05:06;11.30;99.90
8095;DHT22;4090;49.270;8.696;2024-03-08T16:07:48;11.30;99.90
8095;DHT22;4090;49.270;8.696;2024-03-08T16:10:30;11.30;99.90
8095;DHT22;4090;49.270;8.696;2024-03-08T16:13:14;11.30;99.90
8095;DHT22;4090;49.270;8.696;2024-03-08T16:15:57;11.20;99.90
8095;DHT22;4090;49.270;8.696;2024-03-08T16:18:39;11.20;99.90
8095;DHT22;4090;49.270;8.696;2024-03-08T16:21:21;11.20;99.90
8095;DHT22;4090;49.270;8.696;2024-03-08T16:24:03;11.10;99.90
8095;DHT22;4090;49.270;8.696;2024-03-08T16:26:46;11.00;99.90
8095;DHT22;4090;49.270;8.696;2024-03-08T16:29:29;11.10;99.90
8095;DHT22;4090;49.270;8.696;2024-03-08T16:32:13;11.00;99.90
8095;DHT22;4090;49.270;8.696;2024-03-08T16:34:55;11.00;99.90
8095;DHT22;4090;49.270;8.696;2024-03-08T16:37:37;11.00;99.90
8095;DHT22;4090;49.270;8.696;2024-03-08T16:40:20;11.00;99.90
8095;DHT22;4090;49.270;8.696;2024-03-08T16:43:02;10.90;99.90
8095;DHT22;4090;49.270;8.696;2024-03-08T16:45:46;10.90;99.90
8095;DHT22;4090;49.270;8.696;2024-03-08T16:48:30;10.90;99.90
8095;DHT22;4090;49.270;8.696;2024-03-08T16:51:12;10.80;99.90
8095;DHT22;4090;49.270;8.696;2024-03-08T16:53:54;10.80;99.90
8095;DHT22;4090;49.270;8.696;2024-03-08T16:56:36;10.80;99.90
8095;DHT22;4090;49.270;8.696;2024-03-08T16:59:18;10.70;99.90
8095;DHT22;4090;49.270;8.696;2024-03-08T17:02:00;10.70;99.90
8095;DHT22;4090;49.270;8.696;2024-03-08T17:04:43;10.60;99.90
8095;DHT22;4090;49.270;8.696;2024-03-08T17:07:25;10.60;99.90
8095;DHT22;4090;49.270;8.696;2024-03-08T17:10:08;10.60;99.90
8095;DHT22;4090;49.270;8.696;2024-03-08T17:12:56;10.50;99.90
8095;DHT22;4090;49.270;8.696;2024-03-08T17:15:39;10.50;99.90
8095;DHT22;4090;49.270;8.696;2024-03-08T17:18:22;10.50;99.90
8095;DHT22;4090;49.270;8.696;2024-03-08T17:21:06;10.50;99.90
8095;DHT22;4090;49.270;8.696;2024-03-08T17:23:53;10.40;99.90
8095;DHT22;4090;49.270;8.696;2024-03-08T17:26:36;10.40;99.90
8095;DHT22;4090;49.270;8.696;2024-03-08T17:29:20;10.40;99.90
8095;DHT22;4090;49.270;8.696;2024-03-08T17:32:02;10.40;99.90
8095;DHT22;4090;49.270;8.696;2024-03-08T17:34:44;10.30;99.90
8095;DHT22;4090;49.270;8.696;2024-03-08T17:37:27;10.30;99.90
8095;DHT22;4090;49.270;8.696;2024-03-08T17:40:10;10.20;99.90
8095;DHT22;4090;49.270;8.696;2024-03-08T17:42:54;10.20;99.90
8095;DHT22;4090;49.270;8.696;2024-03-08T17:45:37;10.20;99.90
8095;DHT22;4090;49.270;8.696;2024-03-08T17:48:21;10.20;99.90
8095;DHT22;4090;49.270;8.696;2024-03-08T17:51:03;10.10;99.90
8095;DHT22;4090;49.270;8.696;2024-03-08T17:53:46;10.10;99.90
8095;DHT22;4090;49.270;8.696;2024-03-08T17:56:29;10.10;99.90
8095;DHT22;4090;49.270;8.696;2024-03-08T17:59:12;10.10;99.90
8095;DHT22;4090;49.270;8.696;2024-03-08T18:01:54;10.00;99.90